Time;durP1;ratioP1;P1;durP2;ratioP2;P2;SDS_P1;SDS_P2;PMS_P1;PMS_P2;Temp;Humidity;BMP_temperature;BMP_pressure;BME280_temperature;BME280_humidity;BME280_pressure;Samples;Min_cycle;Max_cycle;Signal;HPM_P1;HPM_P2
2022/04/13 00:01:10;;;;;;;1.33;0.20;;;;;;;23.65;45.39;102513.03;5060160;28;20029;-71
2022/04/13 00:03:35;;;;;;;0.68;0.20;;;;;;;23.70;45.51;102509.81;5056421;28;20044;-71
2022/04/13 00:06:00;;;;;;;1.40;0.47;;;;;;;23.63;45.33;102515.06;5055001;28;20047;-71
2022/04/13 00:08:26;;;;;;;0.60;0.10;;;;;;;23.63;45.25;102515.06;5054678;28;20202;-72
2022/04/13 00:10:51;;;;;;;1.00;0.20;;;;;;;23.67;44.68;102510.97;5056151;28;20032;-71
2022/04/13 00:13:16;;;;;;;1.80;0.20;;;;;;;23.69;45.01;102516.31;5055838;28;20032;-70
2022/04/13 00:15:42;;;;;;;0.30;0.10;;;;;;;23.59;44.97;102516.44;5056069;28;20025;-72
2022/04/13 00:18:08;;;;;;;2.38;0.50;;;;;;;23.46;44.70;102524.25;5054585;28;20029;-70
2022/04/13 00:20:34;;;;;;;0.55;0.20;;;;;;;23.30;44.25;102513.19;5055828;28;20028;-71
2022/04/13 00:22:59;;;;;;;1.65;0.30;;;;;;;23.22;44.09;102513.16;5055936;28;20066;-72
2022/04/13 00:25:25;;;;;;;0.70;0.10;;;;;;;23.14;44.82;102518.59;5055727;28;20470;-71
2022/04/13 00:27:51;;;;;;;0.30;0.10;;;;;;;23.13;44.11;102522.38;5054589;28;20070;-71
2022/04/13 00:30:16;;;;;;;0.77;0.40;;;;;;;23.03;44.39;102523.34;5056029;28;20024;-70
2022/04/13 00:32:41;;;;;;;0.43;0.10;;;;;;;23.00;45.01;102526.41;5074585;28;19997;-68
2022/04/13 00:35:07;;;;;;;0.75;0.25;;;;;;;23.02;45.21;102529.88;5067858;28;20035;-70
2022/04/13 00:37:32;;;;;;;0.90;0.13;;;;;;;22.97;45.18;102529.47;5055565;28;20028;-70
2022/04/13 00:39:58;;;;;;;2.05;0.73;;;;;;;23.01;46.02;102524.50;5055619;28;20025;-71
2022/04/13 00:42:24;;;;;;;0.55;0.10;;;;;;;22.97;45.82;102521.25;5065988;28;20021;-69
2022/04/13 00:44:49;;;;;;;0.20;0.20;;;;;;;22.92;44.96;102520.88;5056467;28;20451;-70
2022/04/13 00:47:15;;;;;;;0.47;0.17;;;;;;;22.92;45.24;102520.88;5054025;28;20111;-72
2022/04/13 00:49:40;;;;;;;1.58;0.30;;;;;;;22.93;45.82;102519.84;5055454;28;20028;-70
2022/04/13 00:52:06;;;;;;;0.30;0.20;;;;;;;22.93;45.46;102524.47;5055033;28;20036;-70
2022/04/13 00:54:32;;;;;;;1.20;0.22;;;;;;;22.86;44.77;102527.00;5055508;28;20649;-72
2022/04/13 00:56:59;;;;;;;1.50;0.20;;;;;;;22.80;45.17;102522.13;5055260;28;20020;-70
2022/04/13 00:59:26;;;;;;;1.20;0.30;;;;;;;22.87;45.70;102523.25;5055075;28;20024;-70
2022/04/13 01:01:55;;;;;;;1.23;0.10;;;;;;;22.90;45.07;102524.81;5053848;28;20056;-72
2022/04/13 01:04:22;;;;;;;0.60;0.38;;;;;;;22.82;44.50;102520.09;5055397;28;20147;-67
2022/04/13 01:06:47;;;;;;;3.03;0.40;;;;;;;22.73;44.27;102526.53;5071531;28;20040;-65
2022/04/13 01:09:13;;;;;;;0.85;0.20;;;;;;;22.75;44.76;102521.75;5058963;28;20036;-71
2022/04/13 01:11:39;;;;;;;1.02;0.30;;;;;;;22.77;44.62;102516.97;5054854;28;20110;-71
2022/04/13 01:14:05;;;;;;;2.63;0.30;;;;;;;22.81;44.39;102523.84;5054947;28;20467;-70
2022/04/13 01:16:32;;;;;;;0.40;0.10;;;;;;;22.77;44.28;102523.31;5054765;28;20658;-70
2022/04/13 01:18:57;;;;;;;2.05;0.30;;;;;;;22.84;44.36;102522.69;5054918;28;20112;-71
2022/04/13 01:21:45;;;;;;;2.95;0.60;;;;;;;22.79;44.83;102520.41;5068303;28;20032;-71
2022/04/13 01:24:12;;;;;;;0.77;0.40;;;;;;;22.76;44.77;102527.06;5054701;28;20017;-70
2022/04/13 01:26:37;;;;;;;0.28;0.20;;;;;;;22.76;44.56;102531.69;5054654;28;20053;-70
2022/04/13 01:29:03;;;;;;;1.75;0.30;;;;;;;22.72;45.16;102535.78;5054776;28;20060;-71
2022/04/13 01:31:28;;;;;;;2.03;0.35;;;;;;;22.72;44.89;102524.81;5054483;28;20482;-70
2022/04/13 01:33:54;;;;;;;0.95;0.20;;;;;;;22.73;45.23;102523.78;5054582;28;20040;-70
2022/04/13 01:36:19;;;;;;;0.95;0.20;;;;;;;22.73;44.88;102523.78;5054276;28;20522;-71
2022/04/13 01:38:45;;;;;;;0.85;0.30;;;;;;;22.71;44.58;102534.94;5065366;28;20029;-67
2022/04/13 01:41:10;;;;;;;1.63;0.20;;;;;;;22.70;44.39;102532.34;5062213;28;20514;-70
2022/04/13 01:43:36;;;;;;;0.50;0.20;;;;;;;22.73;44.24;102532.03;5054294;28;20103;-71
2022/04/13 01:46:01;;;;;;;0.82;0.20;;;;;;;22.75;44.94;102529.97;5054393;28;20468;-70
2022/04/13 01:48:31;;;;;;;0.45;0.13;;;;;;;22.70;44.49;102537.84;5054121;28;20125;-70
2022/04/13 01:50:58;;;;;;;4.22;0.60;;;;;;;22.74;44.25;102531.88;5054416;28;20472;-71
2022/04/13 01:53:23;;;;;;;0.30;0.20;;;;;;;22.72;44.48;102513.84;5051715;28;20040;-71
2022/04/13 01:55:49;;;;;;;0.73;0.20;;;;;;;22.77;44.65;102522.44;5054152;28;20070;-70
2022/04/13 01:58:14;;;;;;;1.27;0.30;;;;;;;22.73;45.08;102527.41;5051862;28;20063;-71
2022/04/13 02:00:39;;;;;;;1.65;0.43;;;;;;;22.76;44.68;102523.47;5054231;28;20032;-71
2022/04/13 02:03:06;;;;;;;1.48;0.30;;;;;;;22.75;44.69;102527.25;5058508;28;20025;-69
2022/04/13 02:05:31;;;;;;;1.02;0.35;;;;;;;22.75;44.87;102529.97;5054158;28;20377;-70
2022/04/13 02:07:57;;;;;;;3.22;0.43;;;;;;;22.80;44.52;102527.59;5054742;28;20058;-71
2022/04/13 02:10:22;;;;;;;2.60;0.55;;;;;;;22.77;44.89;102528.78;5052269;28;20187;-70
2022/04/13 02:12:48;;;;;;;2.13;0.55;;;;;;;22.84;44.41;102534.50;5053795;28;20500;-70
2022/04/13 02:15:14;;;;;;;1.02;0.50;;;;;;;22.80;44.05;102531.22;5052442;28;20029;-71
2022/04/13 02:17:39;;;;;;;4.80;0.70;;;;;;;22.84;44.64;102540.00;5052508;28;20029;-70
2022/04/13 02:20:08;;;;;;;1.33;0.35;;;;;;;22.93;44.41;102533.56;5053812;28;20024;-69
2022/04/13 02:22:34;;;;;;;2.28;0.40;;;;;;;22.90;44.19;102539.38;5053105;28;20024;-72
2022/04/13 02:25:01;;;;;;;3.38;0.47;;;;;;;22.96;44.36;102544.22;5052737;28;20017;-70
2022/04/13 02:27:26;;;;;;;2.65;0.50;;;;;;;23.02;44.91;102549.06;5051205;28;20029;-69
2022/04/13 02:29:51;;;;;;;0.50;0.10;;;;;;;22.96;44.18;102541.47;5053792;28;20475;-71
2022/04/13 02:32:17;;;;;;;3.08;0.30;;;;;;;23.08;45.39;102542.91;5051912;28;20453;-70
2022/04/13 02:34:44;;;;;;;1.17;0.30;;;;;;;23.07;44.85;102541.22;5052156;28;20032;-69
2022/04/13 02:37:10;;;;;;;0.98;0.30;;;;;;;23.09;44.90;102544.63;5059248;28;20039;-68
2022/04/13 02:39:36;;;;;;;0.82;0.30;;;;;;;23.09;45.03;102544.63;5069154;28;20369;-69
2022/04/13 02:42:01;;;;;;;2.63;0.50;;;;;;;23.08;44.34;102531.94;5057396;28;20021;-70
2022/04/13 02:44:26;;;;;;;2.80;0.30;;;;;;;23.04;44.78;102541.53;5053243;28;20536;-69
2022/04/13 02:46:51;;;;;;;1.77;0.45;;;;;;;23.08;44.74;102540.19;5061043;28;20468;-71
2022/04/13 02:49:17;;;;;;;1.45;0.28;;;;;;;23.06;43.72;102542.22;5052982;28;20016;-70
2022/04/13 02:51:42;;;;;;;1.40;0.45;;;;;;;23.07;44.75;102546.69;5052850;28;20392;-70
2022/04/13 02:54:07;;;;;;;0.25;0.15;;;;;;;23.03;44.17;102548.03;5051765;28;20021;-72
2022/04/13 02:56:33;;;;;;;0.73;0.40;;;;;;;23.03;44.15;102542.56;5051826;28;20159;-70
2022/04/13 02:58:58;;;;;;;0.90;0.35;;;;;;;23.09;44.44;102555.63;5052961;28;20032;-70
2022/04/13 03:01:24;;;;;;;1.75;0.45;;;;;;;23.07;44.27;102475.38;5052706;28;20033;-71
2022/04/13 03:03:49;;;;;;;0.95;0.25;;;;;;;23.07;44.16;102475.38;5051640;28;20448;-70
2022/04/13 03:06:14;;;;;;;1.10;0.30;;;;;;;23.08;44.33;102468.84;5052791;28;20103;-69
2022/04/13 03:08:40;;;;;;;1.95;0.40;;;;;;;23.10;43.87;102573.78;5061077;28;20037;-72
2022/04/13 03:11:07;;;;;;;1.98;0.30;;;;;;;23.18;43.97;102537.34;5051443;28;20032;-71
2022/04/13 03:13:32;;;;;;;1.63;0.65;;;;;;;23.23;45.34;102528.59;5052444;28;20021;-69
2022/04/13 03:15:57;;;;;;;1.98;0.50;;;;;;;23.05;45.74;102524.06;5052746;28;20480;-71
2022/04/13 03:18:22;;;;;;;0.30;0.00;;;;;;;23.00;46.01;102525.53;5051572;28;20047;-70
2022/04/13 03:20:48;;;;;;;0.40;0.20;;;;;;;22.95;47.27;102531.53;5051367;28;20115;-71
2022/04/13 03:23:13;;;;;;;0.60;0.10;;;;;;;22.90;46.92;102528.41;5057906;28;20024;-70
2022/04/13 03:25:38;;;;;;;1.10;0.20;;;;;;;22.87;47.26;102519.66;5059750;28;20056;-71
2022/04/13 03:28:04;;;;;;;0.20;0.20;;;;;;;22.73;47.05;102510.94;5051334;28;20120;-70
2022/04/13 03:30:29;;;;;;;1.17;0.30;;;;;;;22.64;46.62;102508.28;5052359;28;20021;-71
2022/04/13 03:32:54;;;;;;;1.30;0.20;;;;;;;22.66;47.12;102506.25;5052505;28;20452;-71
2022/04/13 03:35:22;;;;;;;1.25;0.10;;;;;;;22.66;46.10;102514.47;5059762;28;20024;-68
2022/04/13 03:37:48;;;;;;;2.97;0.57;;;;;;;22.62;47.03;102507.59;5073128;28;20083;-65
2022/04/13 03:40:14;;;;;;;0.10;0.10;;;;;;;22.62;46.35;102511.19;5052379;28;20040;-71
2022/04/13 03:42:41;;;;;;;1.77;0.30;;;;;;;22.60;46.72;102515.13;5052333;28;20457;-70
2022/04/13 03:45:09;;;;;;;0.40;0.13;;;;;;;22.55;46.13;102514.75;5052410;28;20029;-70
2022/04/13 03:47:34;;;;;;;1.48;0.45;;;;;;;22.56;46.10;102503.63;5052050;28;20025;-72
2022/04/13 03:50:00;;;;;;;0.65;0.25;;;;;;;22.52;46.24;102507.72;5051090;28;20385;-70
2022/04/13 03:52:26;;;;;;;0.20;0.10;;;;;;;22.50;45.84;102510.59;5052056;28;20049;-70
2022/04/13 03:54:52;;;;;;;0.77;0.17;;;;;;;22.48;46.30;102500.81;5052281;28;20040;-71
2022/04/13 03:57:17;;;;;;;0.73;0.20;;;;;;;22.45;46.00;102501.97;5052009;28;20022;-70
2022/04/13 03:59:42;;;;;;;0.40;0.20;;;;;;;22.47;46.80;102505.41;5050772;28;20472;-70
2022/04/13 04:02:08;;;;;;;0.38;0.10;;;;;;;22.63;46.11;102514.81;5050890;28;20021;-69
2022/04/13 04:04:33;;;;;;;0.40;0.20;;;;;;;22.80;45.76;102502.94;5057678;28;20009;-70
2022/04/13 04:06:58;;;;;;;1.10;0.47;;;;;;;22.93;45.73;102510.75;5053668;28;20027;-70
2022/04/13 04:09:24;;;;;;;1.77;0.50;;;;;;;22.98;44.82;102503.75;5051925;28;20031;-70
2022/04/13 04:11:49;;;;;;;1.27;0.20;;;;;;;23.06;44.35;102506.56;5052090;28;20048;-71
2022/04/13 04:14:14;;;;;;;1.15;0.45;;;;;;;23.13;44.61;102494.94;5051985;28;20049;-70
2022/04/13 04:16:40;;;;;;;0.52;0.30;;;;;;;23.11;44.64;102486.88;5051227;28;20369;-70
2022/04/13 04:19:05;;;;;;;0.50;0.20;;;;;;;23.20;44.45;102493.28;5051166;28;20350;-72
2022/04/13 04:21:30;;;;;;;0.73;0.20;;;;;;;23.27;43.36;102492.44;5051854;28;20032;-70
2022/04/13 04:23:56;;;;;;;1.40;0.13;;;;;;;23.26;43.49;102495.34;5051920;28;20461;-70
2022/04/13 04:26:21;;;;;;;1.27;0.28;;;;;;;23.28;43.40;102498.78;5050583;28;20032;-73
2022/04/13 04:28:46;;;;;;;1.35;0.20;;;;;;;23.28;43.72;102498.78;5050743;28;20025;-70
2022/04/13 04:31:12;;;;;;;0.95;0.17;;;;;;;23.32;43.70;102494.69;5051854;28;20079;-69
2022/04/13 04:33:37;;;;;;;0.93;0.40;;;;;;;23.31;43.31;102501.19;5058415;28;20028;-69
2022/04/13 04:36:02;;;;;;;0.32;0.10;;;;;;;23.37;43.54;102500.56;5062141;28;20032;-71
2022/04/13 04:38:30;;;;;;;0.70;0.40;;;;;;;23.40;43.26;102497.47;5051644;28;20049;-69
2022/04/13 04:40:56;;;;;;;1.00;0.25;;;;;;;23.38;43.46;102502.25;5054530;28;20376;-70
2022/04/13 04:43:21;;;;;;;1.27;0.20;;;;;;;23.40;43.30;102502.97;5050365;28;20021;-71
2022/04/13 04:45:46;;;;;;;1.30;0.20;;;;;;;23.41;43.33;102504.69;5050983;28;20037;-70
2022/04/13 04:48:12;;;;;;;0.80;0.20;;;;;;;23.42;43.13;102504.50;5054475;28;20017;-71
2022/04/13 04:50:38;;;;;;;0.88;0.28;;;;;;;23.43;43.03;102497.13;5055271;28;20025;-71
2022/04/13 04:53:03;;;;;;;0.20;0.13;;;;;;;23.43;44.09;102497.13;5055232;28;20124;-70
2022/04/13 04:55:29;;;;;;;0.45;0.20;;;;;;;23.48;43.47;102500.22;5055173;28;20414;-70
2022/04/13 04:57:54;;;;;;;1.00;0.22;;;;;;;23.50;42.65;102495.44;5053978;28;20471;-71
2022/04/13 05:00:21;;;;;;;0.55;0.10;;;;;;;23.54;42.43;102499.59;5055050;28;20032;-70
2022/04/13 05:02:48;;;;;;;1.15;0.20;;;;;;;23.54;43.20;102505.09;5053865;28;20016;-71
2022/04/13 05:05:14;;;;;;;1.05;0.22;;;;;;;23.57;43.32;102510.25;5070871;28;20017;-72
2022/04/13 05:07:39;;;;;;;0.80;0.20;;;;;;;23.58;42.72;102506.50;5053731;28;20021;-70
2022/04/13 05:10:05;;;;;;;0.90;0.20;;;;;;;23.61;42.76;102492.44;5055094;28;20538;-70
2022/04/13 05:12:30;;;;;;;0.98;0.20;;;;;;;23.62;41.89;102494.16;5054709;28;20063;-72
2022/04/13 05:14:56;;;;;;;0.30;0.03;;;;;;;23.61;43.22;102500.66;5053705;28;20111;-71
2022/04/13 05:17:24;;;;;;;0.85;0.40;;;;;;;23.66;42.94;102495.53;5054728;28;20066;-70
2022/04/13 05:19:49;;;;;;;0.40;0.40;;;;;;;23.67;43.54;102488.13;5054899;28;20029;-71
2022/04/13 05:22:16;;;;;;;2.15;0.55;;;;;;;23.68;42.74;102488.00;5054678;28;20036;-71
2022/04/13 05:24:41;;;;;;;3.33;0.82;;;;;;;23.69;42.72;102491.59;5060555;28;20067;-69
2022/04/13 05:27:08;;;;;;;2.05;0.30;;;;;;;23.77;43.18;102488.00;5054774;28;20071;-69
2022/04/13 05:29:33;;;;;;;0.40;0.30;;;;;;;23.87;42.88;102499.72;5054569;28;20096;-71
2022/04/13 05:31:59;;;;;;;0.98;0.20;;;;;;;23.91;43.31;102501.09;5062919;28;20048;-69
2022/04/13 05:34:24;;;;;;;0.50;0.10;;;;;;;23.97;42.88;102494.91;5054339;28;20032;-70
2022/04/13 05:36:49;;;;;;;1.60;0.32;;;;;;;23.98;44.06;102486.50;5054498;28;20415;-71
2022/04/13 05:39:14;;;;;;;1.35;0.40;;;;;;;23.99;43.48;102504.69;5054377;28;20037;-70
2022/04/13 05:41:40;;;;;;;0.50;0.20;;;;;;;24.00;43.48;102497.31;5054445;28;20109;-71
2022/04/13 05:44:05;;;;;;;0.55;0.28;;;;;;;24.09;43.74;102495.44;5053175;28;20024;-71
2022/04/13 05:46:33;;;;;;;0.73;0.45;;;;;;;24.07;43.37;102498.38;5052857;28;20032;-70
2022/04/13 05:48:59;;;;;;;0.50;0.20;;;;;;;24.05;43.67;102503.19;5054346;28;20495;-69
2022/04/13 05:51:24;;;;;;;1.08;0.20;;;;;;;24.04;43.68;102501.47;5053987;28;20440;-72
2022/04/13 05:53:50;;;;;;;1.02;0.20;;;;;;;24.02;42.99;102506.28;5052988;28;20021;-70
2022/04/13 05:56:15;;;;;;;0.57;0.10;;;;;;;24.07;43.34;102514.84;5054062;28;20526;-69
2022/04/13 05:58:41;;;;;;;0.82;0.32;;;;;;;24.10;43.58;102513.66;5061966;28;20032;-72
2022/04/13 06:01:06;;;;;;;1.33;0.30;;;;;;;24.10;43.44;102498.03;5054055;28;20028;-70
2022/04/13 06:03:32;;;;;;;2.22;0.30;;;;;;;24.16;42.48;102510.22;5053943;28;20021;-70
2022/04/13 06:05:57;;;;;;;0.40;0.17;;;;;;;24.09;42.53;102512.78;5062632;28;20032;-71
2022/04/13 06:08:22;;;;;;;0.50;0.10;;;;;;;24.11;42.38;102513.47;5057943;28;20057;-71
2022/04/13 06:10:47;;;;;;;1.77;0.20;;;;;;;24.10;42.34;102500.78;5053782;28;20464;-70
2022/04/13 06:13:13;;;;;;;0.50;0.25;;;;;;;24.11;41.93;102505.25;5053793;28;20025;-70
2022/04/13 06:15:38;;;;;;;2.58;0.50;;;;;;;;;;5053736;28;20283;-71
2022/04/13 06:18:04;;;;;;;1.45;0.30;;;;;;;24.17;41.32;102523.78;5053793;28;20074;-70
2022/04/13 06:20:29;;;;;;;2.53;0.15;;;;;;;24.23;41.63;102509.38;5053600;28;20086;-70
2022/04/13 06:22:54;;;;;;;0.50;0.10;;;;;;;24.25;42.83;102507.31;5055209;28;20023;-71
2022/04/13 06:25:20;;;;;;;0.85;0.35;;;;;;;24.21;41.88;102503.19;5053409;28;20021;-70
2022/04/13 06:27:46;;;;;;;0.57;0.10;;;;;;;24.25;41.43;102512.81;5053619;28;20040;-71
2022/04/13 06:30:12;;;;;;;0.30;0.00;;;;;;;24.19;41.86;102521.75;5053467;28;20052;-71
2022/04/13 06:32:45;;;;;;;0.25;0.10;;;;;;;24.06;43.26;102510.41;5053312;28;20108;-70
2022/04/13 06:35:16;;;;;;;0.95;0.00;;;;;;;24.06;44.15;102515.88;5053481;28;20071;-70
2022/04/13 06:37:43;;;;;;;0.10;0.10;;;;;;;23.97;44.03;102516.88;5053387;28;20104;-71
2022/04/13 06:40:09;;;;;;;1.20;0.30;;;;;;;23.92;43.60;102513.78;5053305;28;20059;-70
2022/04/13 06:42:37;;;;;;;1.40;0.20;;;;;;;23.82;42.94;102524.06;5053184;28;20056;-70
2022/04/13 06:45:03;;;;;;;0.10;0.10;;;;;;;23.84;43.37;102538.47;5053226;28;20029;-71
2022/04/13 06:47:29;;;;;;;0.73;0.10;;;;;;;23.81;42.68;102533.31;5061838;28;20017;-71
2022/04/13 06:49:55;;;;;;;0.22;0.05;;;;;;;23.82;43.22;102540.53;5068522;28;20075;-70
2022/04/13 06:52:20;;;;;;;0.70;0.20;;;;;;;23.78;42.60;102540.00;5051335;28;20395;-71
2022/04/13 06:54:46;;;;;;;0.57;0.20;;;;;;;23.81;42.48;102541.56;5052996;28;20029;-71
2022/04/13 06:57:12;;;;;;;0.63;0.13;;;;;;;23.79;41.93;102540.88;5051652;28;20021;-70
2022/04/13 06:59:37;;;;;;;0.32;0.10;;;;;;;23.78;42.20;102552.88;5052867;28;20099;-71
2022/04/13 07:02:03;;;;;;;0.68;0.20;;;;;;;23.78;42.31;102544.66;5053052;28;20112;-71
2022/04/13 07:04:28;;;;;;;1.35;0.10;;;;;;;23.75;42.22;102536.75;5052757;28;20036;-71
2022/04/13 07:06:53;;;;;;;0.30;0.10;;;;;;;23.76;42.29;102541.22;5052893;28;20411;-70
2022/04/13 07:09:19;;;;;;;0.30;0.10;;;;;;;23.78;42.62;102544.66;5052418;28;20039;-71
2022/04/13 07:11:44;;;;;;;0.60;0.20;;;;;;;23.78;42.13;102540.00;5053444;28;20031;-69
2022/04/13 07:14:10;;;;;;;0.52;0.10;;;;;;;23.78;42.59;102539.16;5052735;28;20446;-70
2022/04/13 07:16:35;;;;;;;1.55;0.10;;;;;;;23.77;42.74;102537.44;5052646;28;20388;-71
2022/04/13 07:19:00;;;;;;;0.75;0.30;;;;;;;23.70;42.37;102540.88;5057541;28;20033;-66
2022/04/13 07:21:25;;;;;;;0.10;0.10;;;;;;;23.70;43.31;102540.88;5064436;28;20029;-70
2022/04/13 07:23:51;;;;;;;0.22;0.13;;;;;;;23.72;42.93;102546.19;5052614;28;20384;-71
2022/04/13 07:26:16;;;;;;;1.10;0.28;;;;;;;23.77;42.07;102548.44;5052478;28;20029;-71
2022/04/13 07:28:41;;;;;;;2.03;0.40;;;;;;;23.73;42.21;102542.41;5052528;28;20375;-69
2022/04/13 07:31:07;;;;;;;0.17;0.00;;;;;;;23.73;42.20;102541.56;5062653;28;20021;-70
2022/04/13 07:33:32;;;;;;;1.00;0.10;;;;;;;23.77;41.34;102542.94;5052715;28;20524;-70
2022/04/13 07:35:58;;;;;;;1.33;0.20;;;;;;;23.81;41.41;102541.56;5052470;28;20040;-69
2022/04/13 07:38:23;;;;;;;1.65;0.52;;;;;;;23.70;41.32;102546.34;5052281;28;20384;-69
2022/04/13 07:40:49;;;;;;;1.08;0.30;;;;;;;23.72;41.31;102548.06;5052303;28;20024;-70
2022/04/13 07:43:15;;;;;;;3.13;0.65;;;;;;;23.76;42.71;102541.22;5052264;28;20025;-70
2022/04/13 07:45:41;;;;;;;0.17;0.05;;;;;;;23.73;42.79;102547.91;5052369;28;20472;-69
2022/04/13 07:48:07;;;;;;;0.50;0.10;;;;;;;23.76;42.19;102549.44;5051033;28;20025;-71
2022/04/13 07:50:32;;;;;;;0.60;0.10;;;;;;;23.74;41.93;102554.25;5059910;28;20107;-66
2022/04/13 07:52:58;;;;;;;0.98;0.20;;;;;;;23.77;42.12;102553.91;5055394;28;20114;-69
2022/04/13 07:55:23;;;;;;;0.60;0.15;;;;;;;23.78;43.16;102562.00;5052111;28;20070;-71
2022/04/13 07:57:49;;;;;;;1.75;0.38;;;;;;;23.77;42.94;102560.28;5052192;28;20021;-70
2022/04/13 08:00:14;;;;;;;1.67;0.20;;;;;;;23.73;42.72;102558.03;5052233;28;20622;-69
2022/04/13 08:02:41;;;;;;;1.70;0.20;;;;;;;23.77;42.86;102559.41;5052093;28;20485;-70
2022/04/13 08:05:07;;;;;;;1.15;0.15;;;;;;;23.77;42.20;102563.00;5050929;28;20029;-71
2022/04/13 08:07:33;;;;;;;0.77;0.30;;;;;;;23.76;42.88;102564.03;5051073;28;20027;-70
2022/04/13 08:09:59;;;;;;;0.90;0.20;;;;;;;23.79;42.84;102560.09;5052156;28;20395;-69
2022/04/13 08:12:28;;;;;;;1.38;0.10;;;;;;;23.83;42.94;102553.25;5059752;28;20029;-70
2022/04/13 08:14:53;;;;;;;2.88;0.38;;;;;;;23.79;42.97;102562.84;5055695;28;20025;-69
2022/04/13 08:17:18;;;;;;;0.70;0.28;;;;;;;23.92;42.67;102552.25;5052931;28;20025;-69
2022/04/13 08:19:44;;;;;;;1.50;0.20;;;;;;;23.90;42.76;102552.41;5054913;28;20623;-70
2022/04/13 08:22:09;;;;;;;0.50;0.17;;;;;;;23.86;42.55;102558.44;5054532;28;20029;-70
2022/04/13 08:24:34;;;;;;;1.10;0.00;;;;;;;23.84;42.14;102557.72;5055795;28;20036;-69
2022/04/13 08:27:00;;;;;;;0.93;0.30;;;;;;;23.84;41.53;102561.31;5054664;28;20047;-71
2022/04/13 08:29:26;;;;;;;1.67;0.20;;;;;;;23.84;42.55;102554.97;5055667;28;20116;-70
2022/04/13 08:31:51;;;;;;;0.55;0.20;;;;;;;23.87;42.57;102555.50;5055858;28;20035;-69
2022/04/13 08:34:16;;;;;;;2.90;0.30;;;;;;;23.89;42.19;102563.56;5055539;28;20072;-70
2022/04/13 08:36:41;;;;;;;0.47;0.20;;;;;;;23.92;42.41;102557.75;5055656;28;20372;-70
2022/04/13 08:39:13;;;;;;;0.57;0.20;;;;;;;23.92;42.74;102557.75;5055693;28;20028;-69
2022/04/13 08:41:55;;;;;;;1.40;0.17;;;;;;;23.94;42.73;102567.53;5055560;28;20066;-69
2022/04/13 08:44:38;;;;;;;0.25;0.10;;;;;;;23.90;42.37;102559.81;5054096;28;20033;-71
2022/04/13 08:47:12;;;;;;;1.17;0.17;;;;;;;24.01;42.00;102563.06;5054261;28;20024;-69
2022/04/13 08:49:39;;;;;;;2.40;0.30;;;;;;;24.13;42.96;102555.38;5064417;28;20020;-68
2022/04/13 08:52:08;;;;;;;1.08;0.20;;;;;;;24.16;42.23;102566.03;5059477;28;20085;-70
2022/04/13 08:54:44;;;;;;;0.45;0.30;;;;;;;24.20;43.15;102556.44;5055250;28;20033;-70
2022/04/13 08:57:11;;;;;;;1.42;0.38;;;;;;;24.21;42.90;102563.66;5055202;28;20056;-69
2022/04/13 09:00:02;;;;;;;0.30;0.20;;;;;;;24.21;42.51;102558.16;5055197;28;20698;-69
2022/04/13 09:02:48;;;;;;;0.70;0.10;;;;;;;24.23;42.41;102556.09;4993168;28;20030;-71
2022/04/13 09:05:16;;;;;;;1.15;0.30;;;;;;;24.23;41.78;102560.75;4993498;28;20041;-69
2022/04/13 09:07:42;;;;;;;0.85;0.30;;;;;;;24.26;41.73;102561.25;4993428;28;20045;-68
2022/04/13 09:10:16;;;;;;;0.57;0.20;;;;;;;24.25;42.06;102559.53;4993423;28;20038;-70
2022/04/13 09:12:42;;;;;;;1.02;0.20;;;;;;;24.24;41.80;102556.97;4993201;28;20030;-70
2022/04/13 09:15:08;;;;;;;1.08;0.40;;;;;;;24.25;41.78;102556.78;4993378;28;20039;-69
2022/04/13 09:17:35;;;;;;;0.45;0.10;;;;;;;24.23;42.41;102553.34;4993189;28;20041;-70
2022/04/13 09:20:01;;;;;;;1.25;0.13;;;;;;;24.27;42.08;102551.13;4987769;28;20041;-68
2022/04/13 09:22:28;;;;;;;0.75;0.10;;;;;;;24.22;41.08;102554.38;4983852;28;20030;-69
2022/04/13 09:24:56;;;;;;;2.50;0.70;;;;;;;24.25;41.38;102559.53;4999557;28;20030;-69
2022/04/13 09:27:22;;;;;;;0.35;0.20;;;;;;;24.25;41.07;102559.53;4992875;28;20121;-70
2022/04/13 09:29:47;;;;;;;1.08;0.30;;;;;;;24.27;41.72;102567.59;4993083;28;20045;-69
2022/04/13 09:32:14;;;;;;;0.68;0.20;;;;;;;24.28;41.27;102558.34;4975707;28;20038;-70
2022/04/13 09:34:39;;;;;;;1.08;0.32;;;;;;;24.33;40.50;102563.34;4992844;28;20112;-70
2022/04/13 09:37:06;;;;;;;0.68;0.20;;;;;;;24.35;41.16;102564.03;4992934;28;20109;-70
2022/04/13 09:39:32;;;;;;;0.95;0.43;;;;;;;24.34;41.80;102551.31;5024763;28;20056;-69
2022/04/13 09:42:01;;;;;;;0.20;0.10;;;;;;;24.41;41.29;102558.72;5054581;28;20024;-70
2022/04/13 09:44:29;;;;;;;0.10;0.00;;;;;;;24.37;41.53;102551.84;5054592;28;20384;-70
2022/04/13 09:47:10;;;;;;;0.10;0.10;;;;;;;24.26;41.85;102560.41;5054906;28;20104;-69
2022/04/13 09:49:45;;;;;;;0.68;0.20;;;;;;;24.20;42.71;102561.94;5054581;28;20037;-69
2022/04/13 09:52:11;;;;;;;0.85;0.20;;;;;;;24.08;42.17;102555.03;5054102;28;20037;-70
2022/04/13 09:54:45;;;;;;;0.57;0.20;;;;;;;24.01;42.40;102552.09;5052886;28;20476;-70
2022/04/13 09:57:21;;;;;;;0.47;0.10;;;;;;;23.98;41.42;102551.56;5054312;28;20125;-69
2022/04/13 09:59:53;;;;;;;0.32;0.10;;;;;;;23.94;42.38;102561.19;5054172;28;20036;-70
2022/04/13 10:02:33;;;;;;;1.65;0.32;;;;;;;23.93;42.87;102551.22;5069920;28;20025;-71
2022/04/13 10:04:58;;;;;;;0.45;0.10;;;;;;;23.94;42.12;102556.53;5054080;28;20055;-70
2022/04/13 10:07:25;;;;;;;1.38;0.40;;;;;;;23.91;41.91;102551.41;5053897;28;20049;-69
2022/04/13 10:09:50;;;;;;;0.32;0.20;;;;;;;23.92;41.97;102547.63;5054023;28;20048;-71
2022/04/13 10:12:15;;;;;;;0.22;0.10;;;;;;;23.92;41.56;102549.50;5053735;28;20094;-70
2022/04/13 10:14:41;;;;;;;0.17;0.08;;;;;;;23.91;41.90;102551.41;5053945;28;20371;-70
2022/04/13 10:17:16;;;;;;;0.28;0.10;;;;;;;23.90;41.51;102543.31;5053857;28;20024;-70
2022/04/13 10:19:50;;;;;;;0.20;0.10;;;;;;;23.88;43.31;102545.38;5059427;28;20024;-71
2022/04/13 10:22:16;;;;;;;;;;;;;;;23.86;41.29;102541.94;5054021;28;20024;-70
2022/04/13 10:24:42;;;;;;;1.45;0.25;;;;;;;23.82;41.90;102540.53;5054167;28;19909;-70
2022/04/13 10:27:18;;;;;;;0.30;0.10;;;;;;;23.82;42.07;102535.91;5053639;28;20032;-70
2022/04/13 10:29:48;;;;;;;0.60;0.10;;;;;;;23.83;42.04;102536.75;5053529;28;20063;-69
2022/04/13 10:32:15;;;;;;;1.95;0.40;;;;;;;23.86;41.84;102536.44;5053409;28;20032;-69
2022/04/13 10:34:41;;;;;;;0.00;0.00;;;;;;;23.85;40.98;102521.84;5053545;28;20480;-70
2022/04/13 10:37:07;;;;;;;0.05;0.05;;;;;;;23.86;41.63;102519.97;5053421;28;20059;-70
2022/04/13 10:39:34;;;;;;;0.65;0.10;;;;;;;23.85;41.54;102515.47;5052243;28;20418;-69
2022/04/13 10:42:02;;;;;;;1.15;0.40;;;;;;;23.85;40.74;102518.22;5057477;28;20039;-70
2022/04/13 10:44:41;;;;;;;3.50;0.43;;;;;;;23.84;41.51;102517.38;5066366;28;20107;-70
2022/04/13 10:47:08;;;;;;;0.40;0.32;;;;;;;23.91;41.09;102509.34;5051940;28;20021;-69
2022/04/13 10:49:44;;;;;;;1.88;0.30;;;;;;;23.88;41.28;102513.28;5053030;28;20246;-69
2022/04/13 10:52:14;;;;;;;0.30;0.13;;;;;;;23.83;41.28;102521.13;5052934;28;20037;-70
2022/04/13 10:54:46;;;;;;;1.65;0.10;;;;;;;23.85;41.67;102501.75;5050319;28;20104;-70
2022/04/13 10:57:12;;;;;;;0.28;0.00;;;;;;;23.87;41.87;102499.72;5031649;28;20033;-69
2022/04/13 10:59:50;;;;;;;0.00;0.00;;;;;;;23.86;41.82;102503.50;5032710;28;20587;-70
2022/04/13 11:02:41;;;;;;;1.23;0.15;;;;;;;23.86;42.31;102495.25;5033048;28;20104;-70
2022/04/13 11:05:07;;;;;;;0.20;0.10;;;;;;;23.84;41.69;102502.78;5032900;28;20025;-69
2022/04/13 11:07:33;;;;;;;0.63;0.20;;;;;;;23.84;41.88;102494.53;5033581;28;20018;-69
2022/04/13 11:10:00;;;;;;;0.10;0.00;;;;;;;23.91;42.54;102501.09;5033744;28;20029;-71
2022/04/13 11:12:26;;;;;;;1.30;0.38;;;;;;;23.88;41.92;102501.44;5050028;28;20087;-70
2022/04/13 11:14:58;;;;;;;0.57;0.20;;;;;;;23.86;41.75;102498.00;5052615;28;20480;-70
2022/04/13 11:17:26;;;;;;;0.95;0.08;;;;;;;23.86;42.25;102503.50;5052355;28;20060;-70
2022/04/13 11:20:24;;;;;;;0.45;0.10;;;;;;;23.92;42.21;102500.06;5054440;28;20028;-72
2022/04/13 11:23:13;;;;;;;1.70;0.82;;;;;;;23.94;41.79;102503.50;5051294;28;20112;-70
2022/04/13 11:25:54;;;;;;;0.98;0.22;;;;;;;23.93;41.77;102504.53;5052531;28;20376;-70